createdAt,value
2019-03-01T00:01:04.091Z,118.90
2019-03-01T00:03:33.546Z,119.90
2019-03-01T00:06:17.011Z,80.50
2019-03-01T00:09:22.624Z,94.37
2019-03-01T00:12:09.275Z,91.50
2019-03-01T00:15:02.091Z,110.27
2019-03-01T00:17:48.126Z,114.67
2019-03-01T00:20:36.259Z,109.80
2019-03-01T00:23:33.631Z,113.27
2019-03-01T00:26:23.569Z,111.37
2019-03-01T00:29:04.270Z,124.93
2019-03-01T00:31:38.543Z,125.93
2019-03-01T00:34:28.431Z,130.73
2019-03-01T00:37:30.163Z,128.50
2019-03-01T00:40:13.590Z,134.63
2019-03-01T00:43:03.205Z,135.47
2019-03-01T00:45:31.521Z,162.97
2019-03-01T00:47:59.821Z,184.63
2019-03-01T00:50:28.444Z,182.37
2019-03-01T00:52:57.127Z,175.47
2019-03-01T00:55:25.712Z,183.70
2019-03-01T00:57:54.268Z,174.17
2019-03-01T01:00:31.995Z,172.73
2019-03-01T01:03:00.312Z,167.57
2019-03-01T01:05:28.594Z,155.47
2019-03-01T01:07:57.237Z,154.80
2019-03-01T01:10:25.550Z,151.87
2019-03-01T01:12:54.193Z,168.50
2019-03-01T01:15:22.783Z,165.90
2019-03-01T01:17:51.093Z,166.63
2019-03-01T01:20:19.663Z,166.07
2019-03-01T01:22:47.952Z,159.13
2019-03-01T01:25:16.362Z,156.67
2019-03-01T01:27:44.980Z,156.93
2019-03-01T01:30:16.507Z,150.77
2019-03-01T01:32:45.110Z,152.90
2019-03-01T01:35:13.699Z,156.70
2019-03-01T01:37:42.281Z,149.63
2019-03-01T01:40:11.379Z,149.87
2019-03-01T01:42:39.675Z,144.13
2019-03-01T01:45:10.341Z,142.70
2019-03-01T01:47:38.621Z,144.53
2019-03-01T01:50:08.966Z,142.87
2019-03-01T01:52:37.260Z,137.50
2019-03-01T01:55:06.347Z,134.80
2019-03-01T01:57:34.947Z,123.63
2019-03-01T02:00:04.105Z,117.97
2019-03-01T02:02:32.394Z,118.53
2019-03-01T02:05:00.999Z,123.40
2019-03-01T02:07:29.713Z,129.27
2019-03-01T02:09:57.999Z,127.00
2019-03-01T02:12:26.319Z,110.33
2019-03-01T02:14:54.646Z,123.70
2019-03-01T02:17:23.305Z,121.47
2019-03-01T02:19:51.614Z,119.00
2019-03-01T02:22:19.915Z,119.00
2019-03-01T02:24:48.203Z,115.07
2019-03-01T02:27:27.912Z,108.60
2019-03-01T02:29:56.560Z,112.87
2019-03-01T02:32:36.881Z,119.23
2019-03-01T02:35:10.825Z,123.17
2019-03-01T02:37:39.423Z,119.37
2019-03-01T02:40:10.449Z,118.77
2019-03-01T02:42:38.794Z,115.93
2019-03-01T02:45:13.042Z,119.30
2019-03-01T02:47:41.387Z,117.13
2019-03-01T02:50:11.636Z,115.80
2019-03-01T02:52:39.920Z,115.50
2019-03-01T02:55:11.594Z,111.93
2019-03-01T02:57:39.907Z,110.90
2019-03-01T03:00:17.179Z,109.47
2019-03-01T03:02:45.864Z,107.13
2019-03-01T03:05:14.427Z,109.53
2019-03-01T03:08:02.198Z,109.17
2019-03-01T03:10:30.850Z,108.30
2019-03-01T03:13:01.606Z,105.27
2019-03-01T03:15:31.556Z,106.40
2019-03-01T03:18:00.026Z,105.97
2019-03-01T03:20:28.665Z,104.00
2019-03-01T03:22:57.023Z,102.37
2019-03-01T03:25:25.623Z,103.47
2019-03-01T03:27:54.208Z,103.03
2019-03-01T03:30:22.507Z,99.80
2019-03-01T03:32:50.810Z,100.30
2019-03-01T03:35:19.171Z,98.33
2019-03-01T03:37:47.930Z,97.43
2019-03-01T03:40:16.615Z,97.83
2019-03-01T03:42:44.991Z,95.57
2019-03-01T03:45:16.103Z,95.30
2019-03-01T03:47:44.397Z,94.30
2019-03-01T03:50:13.613Z,95.83
2019-03-01T03:52:42.295Z,93.17
2019-03-01T03:55:15.860Z,93.70
2019-03-01T03:57:44.160Z,94.70
2019-03-01T04:00:20.963Z,92.53
2019-03-01T04:02:49.335Z,89.67
2019-03-01T04:05:18.119Z,91.83
2019-03-01T04:07:46.675Z,91.63
2019-03-01T04:10:15.015Z,88.67
2019-03-01T04:12:43.468Z,90.53
2019-03-01T04:15:14.224Z,87.73
2019-03-01T04:17:42.551Z,85.93
2019-03-01T04:20:16.202Z,86.60
2019-03-01T04:22:44.759Z,87.70
2019-03-01T04:25:13.351Z,84.60
2019-03-01T04:27:41.668Z,85.53
2019-03-01T04:30:16.075Z,85.97
2019-03-01T04:32:44.375Z,83.40
2019-03-01T04:35:13.648Z,84.00
2019-03-01T04:37:41.964Z,84.87
2019-03-01T04:40:12.170Z,84.00
2019-03-01T04:42:40.555Z,85.20
2019-03-01T04:45:10.974Z,84.43
2019-03-01T04:47:39.259Z,85.40
2019-03-01T04:50:09.750Z,83.53
2019-03-01T04:52:38.034Z,81.80
2019-03-01T04:55:18.379Z,80.40
2019-03-01T04:57:46.662Z,78.27
2019-03-01T05:00:17.821Z,79.50
2019-03-01T05:02:46.467Z,79.63
2019-03-01T05:05:15.665Z,80.53
2019-03-01T05:07:44.350Z,79.90
2019-03-01T05:10:13.472Z,82.40
2019-03-01T05:12:41.787Z,82.80
2019-03-01T05:15:14.569Z,76.93
2019-03-01T05:17:43.195Z,79.27
2019-03-01T05:20:12.194Z,79.70
2019-03-01T05:22:40.512Z,77.43
2019-03-01T05:25:10.208Z,82.07
2019-03-01T05:27:38.503Z,77.27
2019-03-01T05:30:18.138Z,79.23
2019-03-01T05:32:46.420Z,77.83
2019-03-01T05:35:15.083Z,76.60
2019-03-01T05:37:43.376Z,75.57
2019-03-01T05:40:15.806Z,77.60
2019-03-01T05:42:44.094Z,75.30
2019-03-01T05:45:18.615Z,75.70
2019-03-01T05:47:46.903Z,77.53
2019-03-01T05:50:15.568Z,75.67
2019-03-01T05:52:43.874Z,77.07
2019-03-01T05:55:12.695Z,75.57
2019-03-01T05:58:17.695Z,75.70
2019-03-01T06:00:46.876Z,77.13
2019-03-01T06:03:27.335Z,73.30
2019-03-01T06:05:55.634Z,75.20
2019-03-01T06:08:44.057Z,74.30
2019-03-01T06:11:18.485Z,75.57
2019-03-01T06:14:11.340Z,71.60
2019-03-01T06:17:02.860Z,73.70
2019-03-01T06:19:40.483Z,72.40
2019-03-01T06:22:42.433Z,71.03
2019-03-01T06:25:34.894Z,73.70
2019-03-01T06:28:21.209Z,70.30
2019-03-01T06:31:04.690Z,72.17
2019-03-01T06:33:44.990Z,71.43
2019-03-01T06:36:19.624Z,72.30
2019-03-01T06:39:25.666Z,68.03
2019-03-01T06:42:14.689Z,67.77
2019-03-01T06:44:46.231Z,68.63
2019-03-01T06:47:41.062Z,66.20
2019-03-01T06:50:14.312Z,68.60
2019-03-01T06:52:42.987Z,66.90
2019-03-01T06:55:26.052Z,64.83
2019-03-01T06:57:54.355Z,66.90
2019-03-01T07:00:22.718Z,66.03
2019-03-01T07:02:52.999Z,62.83
2019-03-01T07:05:21.282Z,61.97
2019-03-01T07:07:50.165Z,61.10
2019-03-01T07:10:18.546Z,64.37
2019-03-01T07:12:46.842Z,62.17
2019-03-01T07:15:15.169Z,60.87
2019-03-01T07:17:43.682Z,78.90
2019-03-01T07:20:12.732Z,83.60
2019-03-01T07:22:41.450Z,96.93
2019-03-01T07:25:09.738Z,92.57
2019-03-01T07:27:38.038Z,98.03
2019-03-01T07:30:09.950Z,103.17
2019-03-01T07:32:38.667Z,103.33
2019-03-01T07:35:08.971Z,101.03
2019-03-01T07:37:37.299Z,102.17
2019-03-01T07:40:10.683Z,107.00
2019-03-01T07:42:38.981Z,115.50
2019-03-01T07:45:12.842Z,129.73
2019-03-01T07:47:41.226Z,129.13
2019-03-01T07:50:13.640Z,124.47
2019-03-01T07:52:41.968Z,125.87
2019-03-01T07:55:11.401Z,124.40
2019-03-01T07:57:39.771Z,118.07
2019-03-01T08:00:14.189Z,115.63
2019-03-01T08:02:45.528Z,106.77
2019-03-01T08:05:16.213Z,118.83
2019-03-01T08:07:44.203Z,118.53
2019-03-01T08:10:20.581Z,118.20
2019-03-01T08:12:47.180Z,118.00
2019-03-01T08:15:17.087Z,110.73
2019-03-01T08:17:45.718Z,124.57
2019-03-01T08:20:16.651Z,186.10
2019-03-01T08:22:48.521Z,152.83
2019-03-01T08:25:15.005Z,150.63
2019-03-01T08:27:46.316Z,142.60
2019-03-01T08:30:16.424Z,150.33
2019-03-01T08:32:47.634Z,150.33
2019-03-01T08:35:19.257Z,143.27
2019-03-01T08:37:49.811Z,147.37
2019-03-01T08:40:18.324Z,140.20
2019-03-01T08:42:46.633Z,140.47
2019-03-01T08:45:19.974Z,137.60
2019-03-01T08:47:48.938Z,157.23
2019-03-01T08:50:17.584Z,164.90
2019-03-01T08:52:46.884Z,170.23
2019-03-01T08:55:18.850Z,151.60
2019-03-01T08:57:47.422Z,165.93
2019-03-01T09:00:28.167Z,166.57
2019-03-01T09:02:59.891Z,138.17
2019-03-01T09:05:28.204Z,139.17
2019-03-01T09:07:56.826Z,145.73
2019-03-01T09:10:25.130Z,141.53
2019-03-01T09:12:53.498Z,139.00
2019-03-01T09:15:21.818Z,158.17
2019-03-01T09:17:50.119Z,172.20
2019-03-01T09:20:20.531Z,172.30
2019-03-01T09:22:48.884Z,155.23
2019-03-01T09:25:18.808Z,151.10
2019-03-01T09:27:47.116Z,146.73
2019-03-01T09:30:17.953Z,143.13
2019-03-01T09:32:46.545Z,147.40
2019-03-01T09:35:33.407Z,153.63
2019-03-01T09:38:04.638Z,149.87
2019-03-01T09:40:32.015Z,148.57
2019-03-01T09:43:01.126Z,143.53
2019-03-01T09:45:36.152Z,137.60
2019-03-01T09:47:59.632Z,140.47
2019-03-01T09:50:27.936Z,140.77
2019-03-01T09:52:58.923Z,135.40
2019-03-01T09:55:26.267Z,131.27
2019-03-01T09:57:54.576Z,125.80
2019-03-01T10:00:31.887Z,131.93
2019-03-01T10:03:00.211Z,140.07
2019-03-01T10:05:28.848Z,137.87
2019-03-01T10:07:57.157Z,143.30
2019-03-01T10:10:28.546Z,137.93
2019-03-01T10:12:57.161Z,137.53
2019-03-01T10:15:25.496Z,132.93
2019-03-01T10:17:53.858Z,133.10
2019-03-01T10:20:22.181Z,148.50
2019-03-01T10:22:50.478Z,154.73
2019-03-01T10:25:19.872Z,145.97
2019-03-01T10:27:48.189Z,145.30
2019-03-01T10:30:26.655Z,145.67
2019-03-01T10:32:55.250Z,142.33
2019-03-01T10:35:23.545Z,140.80
2019-03-01T10:37:53.669Z,138.93
2019-03-01T10:40:28.506Z,141.90
2019-03-01T10:42:57.163Z,135.40
2019-03-01T10:45:32.610Z,139.77
2019-03-01T10:48:01.195Z,142.80
2019-03-01T10:50:29.512Z,136.10
2019-03-01T10:52:57.905Z,134.60
2019-03-01T10:55:26.265Z,135.40
2019-03-01T10:57:54.916Z,131.57
2019-03-01T11:00:28.321Z,129.87
2019-03-01T11:02:57.481Z,131.80
2019-03-01T11:05:26.111Z,132.37
2019-03-01T11:07:55.165Z,141.93
2019-03-01T11:10:32.414Z,182.23
2019-03-01T11:13:01.058Z,142.03
2019-03-01T11:15:29.645Z,140.50
2019-03-01T11:17:58.009Z,138.97
2019-03-01T11:20:28.182Z,139.07
2019-03-01T11:22:56.822Z,134.30
2019-03-01T11:25:26.238Z,132.70
2019-03-01T11:27:55.218Z,139.13
2019-03-01T11:30:29.198Z,134.30
2019-03-01T11:32:57.761Z,129.17
2019-03-01T11:35:26.404Z,121.27
2019-03-01T11:37:54.715Z,123.30
2019-03-01T11:40:28.717Z,122.17
2019-03-01T11:42:57.289Z,119.73
2019-03-01T11:45:26.005Z,117.60
2019-03-01T11:47:54.326Z,117.07
2019-03-01T11:50:23.922Z,113.27
2019-03-01T11:52:52.644Z,112.33
2019-03-01T11:55:21.320Z,108.23
2019-03-01T11:57:49.646Z,107.40
2019-03-01T12:00:20.855Z,105.77
2019-03-01T12:02:49.606Z,101.67
2019-03-01T12:05:18.524Z,98.63
2019-03-01T12:07:47.116Z,100.17
2019-03-01T12:10:21.531Z,95.90
2019-03-01T12:12:49.836Z,102.30
2019-03-01T12:15:18.386Z,104.23
2019-03-01T12:17:46.710Z,103.87
2019-03-01T12:20:17.310Z,102.63
2019-03-01T12:22:45.624Z,102.80
2019-03-01T12:25:13.929Z,98.67
2019-03-01T12:27:42.238Z,97.40
2019-03-01T12:30:16.113Z,92.37
2019-03-01T12:32:44.470Z,93.70
2019-03-01T12:35:12.777Z,81.87
2019-03-01T12:37:41.090Z,87.60
2019-03-01T12:40:20.944Z,98.37
2019-03-01T12:42:49.272Z,109.33
2019-03-01T12:45:18.013Z,103.90
2019-03-01T12:47:46.341Z,106.83
2019-03-01T12:50:15.191Z,109.10
2019-03-01T12:52:43.975Z,111.40
2019-03-01T12:55:15.334Z,108.20
2019-03-01T12:57:43.717Z,107.17
2019-03-01T13:00:17.863Z,111.57
2019-03-01T13:02:46.161Z,108.27
2019-03-01T13:05:14.991Z,105.77
2019-03-01T13:07:43.390Z,100.17
2019-03-01T13:10:14.874Z,96.67
2019-03-01T13:12:43.620Z,90.17
2019-03-01T13:15:13.773Z,85.23
2019-03-01T13:17:42.890Z,89.93
2019-03-01T13:20:13.560Z,83.37
2019-03-01T13:22:41.872Z,74.37
2019-03-01T13:25:11.020Z,79.47
2019-03-01T13:27:39.307Z,92.40
2019-03-01T13:30:22.322Z,135.63
2019-03-01T13:32:50.713Z,114.43
2019-03-01T13:35:22.242Z,113.53
2019-03-01T13:37:52.065Z,108.67
2019-03-01T13:40:24.348Z,108.93
2019-03-01T13:42:52.416Z,107.43
2019-03-01T13:45:26.971Z,102.43
2019-03-01T13:47:55.409Z,104.00
2019-03-01T13:50:23.995Z,101.70
2019-03-01T13:52:52.678Z,97.53
2019-03-01T13:55:23.792Z,95.87
2019-03-01T13:57:51.644Z,96.00
2019-03-01T14:00:23.361Z,93.67
2019-03-01T14:02:52.030Z,89.43
2019-03-01T14:05:20.336Z,93.57
2019-03-01T14:07:55.294Z,91.70
2019-03-01T14:10:21.191Z,99.70
2019-03-01T14:12:49.848Z,113.60
2019-03-01T14:15:18.758Z,126.23
2019-03-01T14:17:47.540Z,123.27
2019-03-01T14:20:21.010Z,127.60
2019-03-01T14:22:49.572Z,141.13
2019-03-01T14:25:18.127Z,141.33
2019-03-01T14:27:46.522Z,140.43
2019-03-01T14:30:20.195Z,141.80
2019-03-01T14:32:48.867Z,134.30
2019-03-01T14:35:20.571Z,129.57
2019-03-01T14:37:47.500Z,128.43
2019-03-01T14:40:22.397Z,129.97
2019-03-01T14:42:49.265Z,124.67
2019-03-01T14:45:26.120Z,123.03
2019-03-01T14:47:54.576Z,121.87
2019-03-01T14:50:30.054Z,120.93
2019-03-01T14:52:58.127Z,125.60
2019-03-01T14:55:39.599Z,125.70
2019-03-01T14:58:19.005Z,132.53
2019-03-01T15:00:51.259Z,143.57
2019-03-01T15:03:31.960Z,142.13
2019-03-01T15:06:00.560Z,135.30
2019-03-01T15:08:28.948Z,131.90
2019-03-01T15:10:58.793Z,125.67
2019-03-01T15:13:27.919Z,125.87
2019-03-01T15:15:57.145Z,126.43
2019-03-01T15:18:25.470Z,146.10
2019-03-01T15:20:56.244Z,143.10
2019-03-01T15:23:24.780Z,160.53
2019-03-01T15:25:53.333Z,163.37
2019-03-01T15:28:21.921Z,155.77
2019-03-01T15:30:50.227Z,154.33
2019-03-01T15:33:18.878Z,153.83
2019-03-01T15:35:47.184Z,153.13
2019-03-01T15:38:16.062Z,151.07
2019-03-01T15:40:44.367Z,148.63
2019-03-01T15:43:12.675Z,146.67
2019-03-01T15:45:41.279Z,146.87
2019-03-01T15:48:09.871Z,135.73
2019-03-01T15:50:38.448Z,126.80
2019-03-01T15:53:06.754Z,130.53
2019-03-01T15:55:35.129Z,130.93
2019-03-01T15:58:03.426Z,135.13
2019-03-01T16:00:31.763Z,131.23
2019-03-01T16:03:00.347Z,117.37
2019-03-01T16:05:28.640Z,120.67
2019-03-01T16:07:56.987Z,133.10
2019-03-01T16:10:25.322Z,132.57
2019-03-01T16:12:53.640Z,137.37
2019-03-01T16:15:22.272Z,131.47
2019-03-01T16:17:50.635Z,124.73
2019-03-01T16:20:20.105Z,125.40
2019-03-01T16:22:51.096Z,126.77
2019-03-01T16:25:20.625Z,121.13
2019-03-01T16:27:50.644Z,126.30
2019-03-01T16:30:20.230Z,124.70
2019-03-01T16:32:50.495Z,118.70
2019-03-01T16:35:21.445Z,118.87
2019-03-01T16:37:57.942Z,123.33
2019-03-01T16:40:24.922Z,122.00
2019-03-01T16:42:54.593Z,128.43
2019-03-01T16:45:23.110Z,138.70
2019-03-01T16:47:51.760Z,143.70
2019-03-01T16:50:20.630Z,148.77
2019-03-01T16:52:49.215Z,135.47
2019-03-01T16:55:24.407Z,135.50
2019-03-01T16:57:53.487Z,131.03
2019-03-01T17:00:24.040Z,124.00
2019-03-01T17:03:04.988Z,121.03
2019-03-01T17:05:35.780Z,118.67
2019-03-01T17:08:05.916Z,115.30
2019-03-01T17:10:35.636Z,117.50
2019-03-01T17:13:03.944Z,117.23
2019-03-01T17:15:32.246Z,118.30
2019-03-01T17:18:00.875Z,115.53
2019-03-01T17:20:29.456Z,112.37
2019-03-01T17:22:59.622Z,112.93
2019-03-01T17:25:28.184Z,107.03
2019-03-01T17:27:56.495Z,109.33
2019-03-01T17:30:25.884Z,105.67
2019-03-01T17:32:54.511Z,104.53
2019-03-01T17:35:22.852Z,101.90
2019-03-01T17:37:51.587Z,98.80
2019-03-01T17:40:20.302Z,102.77
2019-03-01T17:42:49.363Z,103.87
2019-03-01T17:45:25.503Z,102.20
2019-03-01T17:47:55.300Z,99.67
2019-03-01T17:50:23.879Z,97.07
2019-03-01T17:52:52.505Z,101.30
2019-03-01T17:55:24.447Z,100.67
2019-03-01T17:57:53.462Z,106.30
2019-03-01T18:00:33.355Z,107.33
2019-03-01T18:03:01.689Z,108.87
2019-03-01T18:05:30.372Z,106.27
2019-03-01T18:07:59.969Z,102.10
2019-03-01T18:10:32.158Z,100.97
2019-03-01T18:12:59.613Z,99.47
2019-03-01T18:15:28.308Z,98.17
2019-03-01T18:17:56.971Z,97.83
2019-03-01T18:20:25.261Z,95.53
2019-03-01T18:22:53.564Z,92.53
2019-03-01T18:25:22.800Z,89.60
2019-03-01T18:27:53.093Z,87.33
2019-03-01T18:30:27.302Z,86.47
2019-03-01T18:32:55.602Z,83.30
2019-03-01T18:35:24.447Z,90.97
2019-03-01T18:37:54.882Z,93.07
2019-03-01T18:40:22.861Z,90.97
2019-03-01T18:42:51.517Z,93.63
2019-03-01T18:45:22.132Z,90.73
2019-03-01T18:47:50.445Z,91.07
2019-03-01T18:50:27.734Z,86.03
2019-03-01T18:52:55.475Z,88.40
2019-03-01T18:55:23.767Z,87.57
2019-03-01T18:57:52.071Z,91.27
2019-03-01T19:00:26.365Z,86.30
2019-03-01T19:02:55.043Z,78.83
2019-03-01T19:05:23.651Z,80.20
2019-03-01T19:07:52.311Z,91.30
2019-03-01T19:10:24.108Z,90.17
2019-03-01T19:12:53.237Z,85.23
2019-03-01T19:15:21.846Z,87.97
2019-03-01T19:17:50.219Z,84.47
2019-03-01T19:20:27.147Z,84.90
2019-03-01T19:22:55.888Z,84.23
2019-03-01T19:25:25.398Z,83.47
2019-03-01T19:27:55.104Z,78.70
2019-03-01T19:30:24.960Z,78.40
2019-03-01T19:32:53.309Z,77.47
2019-03-01T19:35:28.301Z,85.57
2019-03-01T19:37:51.760Z,85.67
2019-03-01T19:40:22.471Z,82.90
2019-03-01T19:42:51.150Z,83.37
2019-03-01T19:45:20.225Z,84.17
2019-03-01T19:47:48.889Z,71.13
2019-03-01T19:50:24.996Z,70.07
2019-03-01T19:52:53.188Z,66.50
2019-03-01T19:55:21.478Z,69.93
2019-03-01T19:57:50.091Z,74.90
2019-03-01T20:00:24.475Z,123.30
2019-03-01T20:02:52.767Z,109.07
2019-03-01T20:05:33.156Z,97.10
2019-03-01T20:08:01.958Z,102.67
2019-03-01T20:10:30.663Z,93.53
2019-03-01T20:12:59.217Z,99.83
2019-03-01T20:15:30.898Z,100.27
2019-03-01T20:17:59.194Z,120.93
2019-03-01T20:20:29.891Z,109.37
2019-03-01T20:22:58.808Z,104.93
2019-03-01T20:25:27.141Z,102.93
2019-03-01T20:27:55.432Z,103.03
2019-03-01T20:30:30.899Z,99.57
2019-03-01T20:32:59.556Z,107.40
2019-03-01T20:35:28.150Z,103.53
2019-03-01T20:38:00.129Z,180.30
2019-03-01T20:40:28.030Z,150.80
2019-03-01T20:43:01.315Z,145.43
2019-03-01T20:45:40.190Z,146.13
2019-03-01T20:48:08.513Z,144.77
2019-03-01T20:50:36.847Z,149.47
2019-03-01T20:53:05.439Z,139.87
2019-03-01T20:55:37.017Z,139.47
2019-03-01T20:58:04.418Z,129.37
2019-03-01T21:00:32.817Z,126.37
2019-03-01T21:03:01.142Z,117.40
2019-03-01T21:05:30.625Z,119.73
2019-03-01T21:08:00.829Z,132.93
2019-03-01T21:10:31.587Z,146.90
2019-03-01T21:12:59.867Z,153.80
2019-03-01T21:15:28.248Z,176.27
2019-03-01T21:17:58.431Z,194.47
2019-03-01T21:20:26.637Z,199.97
2019-03-01T21:22:54.929Z,183.63
2019-03-01T21:25:25.692Z,195.67
2019-03-01T21:27:57.552Z,176.57
2019-03-01T21:30:32.506Z,167.30
2019-03-01T21:33:00.825Z,156.17
2019-03-01T21:35:29.118Z,150.93
2019-03-01T21:37:57.754Z,151.33
2019-03-01T21:40:26.055Z,152.63
2019-03-01T21:42:57.377Z,167.70
2019-03-01T21:45:24.756Z,160.37
2019-03-01T21:47:53.423Z,195.37
2019-03-01T21:50:22.109Z,203.13
2019-03-01T21:52:50.405Z,206.67
2019-03-01T21:55:28.684Z,193.10
2019-03-01T21:57:56.902Z,178.03
2019-03-01T22:00:29.629Z,165.00
2019-03-01T22:02:57.819Z,157.60
2019-03-01T22:05:26.419Z,159.73
2019-03-01T22:07:54.728Z,146.10
2019-03-01T22:10:23.042Z,135.13
2019-03-01T22:12:51.348Z,147.97
2019-03-01T22:15:27.157Z,153.93
2019-03-01T22:17:56.290Z,148.90
2019-03-01T22:20:24.622Z,143.00
2019-03-01T22:22:52.971Z,152.13
2019-03-01T22:25:21.299Z,194.17
2019-03-01T22:27:49.923Z,201.43
2019-03-01T22:30:23.064Z,185.63
2019-03-01T22:32:51.728Z,173.17
2019-03-01T22:35:20.136Z,175.40
2019-03-01T22:37:50.590Z,221.53
2019-03-01T22:40:18.911Z,218.97
2019-03-01T22:42:49.608Z,204.37
2019-03-01T22:45:18.289Z,191.50
2019-03-01T22:47:46.885Z,188.67
2019-03-01T22:50:20.000Z,183.03
2019-03-01T22:52:48.317Z,183.57
2019-03-01T22:55:20.204Z,168.20
2019-03-01T22:57:48.524Z,158.00
2019-03-01T23:00:28.016Z,158.50
2019-03-01T23:02:56.556Z,184.50
2019-03-01T23:05:24.873Z,205.93
2019-03-01T23:07:56.773Z,193.30
2019-03-01T23:10:23.640Z,176.97
2019-03-01T23:12:52.266Z,206.73
2019-03-01T23:15:20.860Z,205.87
2019-03-01T23:17:49.431Z,221.93
2019-03-01T23:20:18.024Z,183.63
2019-03-01T23:22:46.910Z,181.77
2019-03-01T23:25:15.441Z,180.10
2019-03-01T23:27:43.742Z,172.03
2019-03-01T23:30:12.351Z,178.40
2019-03-01T23:32:40.752Z,170.53
2019-03-01T23:35:10.182Z,162.17
2019-03-01T23:37:38.812Z,159.53
2019-03-01T23:40:08.254Z,154.23
2019-03-01T23:42:36.581Z,152.97
2019-03-01T23:45:13.412Z,151.20
2019-03-01T23:47:40.556Z,150.03
2019-03-01T23:50:10.508Z,146.70
2019-03-01T23:52:41.625Z,142.90
2019-03-01T23:55:09.917Z,145.63
2019-03-01T23:57:41.094Z,138.10
